sensor_id;sensor_type;location;lat;lon;timestamp;P1;durP1;ratioP1;P2;durP2;ratioP2
42294;SDS011;27947;47.556;18.718;2023-05-13T00:00:53;7.97;;;6.88;;
42294;SDS011;27947;47.556;18.718;2023-05-13T00:03:19;9.05;;;6.25;;
42294;SDS011;27947;47.556;18.718;2023-05-13T00:05:44;9.05;;;6.38;;
42294;SDS011;27947;47.556;18.718;2023-05-13T00:08:10;7.57;;;6.57;;
42294;SDS011;27947;47.556;18.718;2023-05-13T00:10:36;9.32;;;7.28;;
42294;SDS011;27947;47.556;18.718;2023-05-13T00:13:01;7.40;;;6.60;;
42294;SDS011;27947;47.556;18.718;2023-05-13T00:15:27;10.52;;;7.35;;
42294;SDS011;27947;47.556;18.718;2023-05-13T00:17:52;8.98;;;7.35;;
42294;SDS011;27947;47.556;18.718;2023-05-13T00:20:18;8.18;;;6.60;;
42294;SDS011;27947;47.556;18.718;2023-05-13T00:22:44;9.23;;;7.22;;
42294;SDS011;27947;47.556;18.718;2023-05-13T00:25:09;9.35;;;6.53;;
42294;SDS011;27947;47.556;18.718;2023-05-13T00:27:35;9.27;;;6.85;;
42294;SDS011;27947;47.556;18.718;2023-05-13T00:30:00;12.30;;;6.90;;
42294;SDS011;27947;47.556;18.718;2023-05-13T00:32:26;7.95;;;6.40;;
42294;SDS011;27947;47.556;18.718;2023-05-13T00:34:51;8.75;;;6.88;;
42294;SDS011;27947;47.556;18.718;2023-05-13T00:37:17;7.57;;;6.05;;
42294;SDS011;27947;47.556;18.718;2023-05-13T00:39:42;10.13;;;7.88;;
42294;SDS011;27947;47.556;18.718;2023-05-13T00:42:08;11.45;;;7.07;;
42294;SDS011;27947;47.556;18.718;2023-05-13T00:44:36;10.60;;;7.82;;
42294;SDS011;27947;47.556;18.718;2023-05-13T00:47:02;8.60;;;7.13;;
42294;SDS011;27947;47.556;18.718;2023-05-13T00:49:28;9.15;;;6.72;;
42294;SDS011;27947;47.556;18.718;2023-05-13T00:51:53;8.90;;;6.85;;
42294;SDS011;27947;47.556;18.718;2023-05-13T00:54:19;7.93;;;6.82;;
42294;SDS011;27947;47.556;18.718;2023-05-13T00:56:45;8.07;;;6.72;;
42294;SDS011;27947;47.556;18.718;2023-05-13T00:59:10;9.05;;;7.35;;
42294;SDS011;27947;47.556;18.718;2023-05-13T01:01:38;9.75;;;7.45;;
42294;SDS011;27947;47.556;18.718;2023-05-13T01:07:20;11.27;;;7.22;;
42294;SDS011;27947;47.556;18.718;2023-05-13T01:12:10;9.35;;;7.18;;
42294;SDS011;27947;47.556;18.718;2023-05-13T01:14:39;9.27;;;7.28;;
42294;SDS011;27947;47.556;18.718;2023-05-13T01:19:48;12.02;;;7.13;;
42294;SDS011;27947;47.556;18.718;2023-05-13T01:22:16;9.90;;;6.75;;
42294;SDS011;27947;47.556;18.718;2023-05-13T01:24:41;9.57;;;7.65;;
42294;SDS011;27947;47.556;18.718;2023-05-13T01:27:07;7.72;;;6.63;;
42294;SDS011;27947;47.556;18.718;2023-05-13T01:29:33;8.60;;;6.90;;
42294;SDS011;27947;47.556;18.718;2023-05-13T01:32:00;8.20;;;6.80;;
42294;SDS011;27947;47.556;18.718;2023-05-13T01:34:26;8.18;;;6.45;;
42294;SDS011;27947;47.556;18.718;2023-05-13T01:36:52;9.55;;;7.07;;
42294;SDS011;27947;47.556;18.718;2023-05-13T01:39:19;14.05;;;6.82;;
42294;SDS011;27947;47.556;18.718;2023-05-13T01:41:46;8.40;;;6.75;;
42294;SDS011;27947;47.556;18.718;2023-05-13T01:44:11;10.90;;;7.07;;
42294;SDS011;27947;47.556;18.718;2023-05-13T01:46:41;9.00;;;6.80;;
42294;SDS011;27947;47.556;18.718;2023-05-13T01:49:06;12.90;;;7.35;;
42294;SDS011;27947;47.556;18.718;2023-05-13T01:51:33;8.95;;;6.60;;
42294;SDS011;27947;47.556;18.718;2023-05-13T01:54:00;8.13;;;6.80;;
42294;SDS011;27947;47.556;18.718;2023-05-13T01:56:26;7.63;;;6.22;;
42294;SDS011;27947;47.556;18.718;2023-05-13T01:58:51;9.38;;;6.88;;
42294;SDS011;27947;47.556;18.718;2023-05-13T02:01:17;9.75;;;6.85;;
42294;SDS011;27947;47.556;18.718;2023-05-13T02:03:42;9.65;;;6.60;;
42294;SDS011;27947;47.556;18.718;2023-05-13T02:06:07;10.00;;;7.20;;
42294;SDS011;27947;47.556;18.718;2023-05-13T02:08:33;9.65;;;6.72;;
42294;SDS011;27947;47.556;18.718;2023-05-13T02:10:58;8.30;;;6.32;;
42294;SDS011;27947;47.556;18.718;2023-05-13T02:13:26;10.77;;;6.97;;
42294;SDS011;27947;47.556;18.718;2023-05-13T02:15:52;11.52;;;6.97;;
42294;SDS011;27947;47.556;18.718;2023-05-13T02:18:18;8.30;;;6.55;;
42294;SDS011;27947;47.556;18.718;2023-05-13T02:20:43;9.43;;;6.65;;
42294;SDS011;27947;47.556;18.718;2023-05-13T02:23:09;8.63;;;7.13;;
42294;SDS011;27947;47.556;18.718;2023-05-13T02:25:34;12.93;;;6.82;;
42294;SDS011;27947;47.556;18.718;2023-05-13T02:28:00;9.35;;;6.65;;
42294;SDS011;27947;47.556;18.718;2023-05-13T02:30:25;9.90;;;6.22;;
42294;SDS011;27947;47.556;18.718;2023-05-13T02:32:54;10.90;;;6.72;;
42294;SDS011;27947;47.556;18.718;2023-05-13T02:35:21;7.95;;;6.60;;
42294;SDS011;27947;47.556;18.718;2023-05-13T02:37:47;7.53;;;6.30;;
42294;SDS011;27947;47.556;18.718;2023-05-13T02:40:13;9.68;;;6.10;;
42294;SDS011;27947;47.556;18.718;2023-05-13T02:42:39;10.02;;;6.53;;
42294;SDS011;27947;47.556;18.718;2023-05-13T02:45:06;11.88;;;6.75;;
42294;SDS011;27947;47.556;18.718;2023-05-13T02:47:34;8.48;;;6.70;;
42294;SDS011;27947;47.556;18.718;2023-05-13T02:50:03;10.18;;;6.38;;
42294;SDS011;27947;47.556;18.718;2023-05-13T02:52:30;8.73;;;6.93;;
42294;SDS011;27947;47.556;18.718;2023-05-13T02:54:55;9.15;;;6.63;;
42294;SDS011;27947;47.556;18.718;2023-05-13T02:57:21;9.88;;;6.97;;
42294;SDS011;27947;47.556;18.718;2023-05-13T02:59:47;8.68;;;6.45;;
42294;SDS011;27947;47.556;18.718;2023-05-13T03:02:12;14.60;;;6.78;;
42294;SDS011;27947;47.556;18.718;2023-05-13T03:04:38;8.65;;;6.88;;
42294;SDS011;27947;47.556;18.718;2023-05-13T03:07:05;9.57;;;6.82;;
42294;SDS011;27947;47.556;18.718;2023-05-13T03:09:31;7.88;;;7.03;;
42294;SDS011;27947;47.556;18.718;2023-05-13T03:11:59;9.98;;;6.75;;
42294;SDS011;27947;47.556;18.718;2023-05-13T03:14:25;8.57;;;6.68;;
42294;SDS011;27947;47.556;18.718;2023-05-13T03:16:51;10.35;;;7.32;;
42294;SDS011;27947;47.556;18.718;2023-05-13T03:19:16;8.63;;;6.70;;
42294;SDS011;27947;47.556;18.718;2023-05-13T03:21:41;10.95;;;7.47;;
42294;SDS011;27947;47.556;18.718;2023-05-13T03:24:10;7.57;;;6.30;;
42294;SDS011;27947;47.556;18.718;2023-05-13T03:26:37;10.23;;;7.47;;
42294;SDS011;27947;47.556;18.718;2023-05-13T03:29:05;10.27;;;6.57;;
42294;SDS011;27947;47.556;18.718;2023-05-13T03:31:31;8.82;;;6.43;;
42294;SDS011;27947;47.556;18.718;2023-05-13T03:33:58;7.43;;;5.55;;
42294;SDS011;27947;47.556;18.718;2023-05-13T03:36:23;5.72;;;5.00;;
42294;SDS011;27947;47.556;18.718;2023-05-13T03:38:49;7.13;;;6.15;;
42294;SDS011;27947;47.556;18.718;2023-05-13T03:41:15;7.80;;;5.60;;
42294;SDS011;27947;47.556;18.718;2023-05-13T03:43:42;8.02;;;5.57;;
42294;SDS011;27947;47.556;18.718;2023-05-13T03:46:10;10.05;;;6.00;;
42294;SDS011;27947;47.556;18.718;2023-05-13T03:48:35;6.60;;;5.35;;
42294;SDS011;27947;47.556;18.718;2023-05-13T03:51:01;8.40;;;5.55;;
42294;SDS011;27947;47.556;18.718;2023-05-13T03:53:26;11.80;;;6.45;;
42294;SDS011;27947;47.556;18.718;2023-05-13T03:55:53;8.00;;;6.60;;
42294;SDS011;27947;47.556;18.718;2023-05-13T03:58:18;9.73;;;6.68;;
42294;SDS011;27947;47.556;18.718;2023-05-13T04:00:47;9.73;;;6.78;;
42294;SDS011;27947;47.556;18.718;2023-05-13T04:03:15;11.90;;;7.10;;
42294;SDS011;27947;47.556;18.718;2023-05-13T04:05:41;11.20;;;7.22;;
42294;SDS011;27947;47.556;18.718;2023-05-13T04:08:07;8.40;;;6.65;;
42294;SDS011;27947;47.556;18.718;2023-05-13T04:10:32;11.60;;;7.20;;
42294;SDS011;27947;47.556;18.718;2023-05-13T04:12:57;10.48;;;6.65;;
42294;SDS011;27947;47.556;18.718;2023-05-13T04:15:23;7.30;;;6.32;;
42294;SDS011;27947;47.556;18.718;2023-05-13T04:17:48;8.65;;;6.55;;
42294;SDS011;27947;47.556;18.718;2023-05-13T04:20:14;8.27;;;6.30;;
42294;SDS011;27947;47.556;18.718;2023-05-13T04:22:39;8.45;;;6.57;;
42294;SDS011;27947;47.556;18.718;2023-05-13T04:25:05;8.88;;;6.30;;
42294;SDS011;27947;47.556;18.718;2023-05-13T04:27:30;7.05;;;5.75;;
42294;SDS011;27947;47.556;18.718;2023-05-13T04:30:06;8.13;;;6.15;;
42294;SDS011;27947;47.556;18.718;2023-05-13T04:32:33;8.80;;;6.30;;
42294;SDS011;27947;47.556;18.718;2023-05-13T04:34:58;8.60;;;6.10;;
42294;SDS011;27947;47.556;18.718;2023-05-13T04:37:25;6.90;;;5.55;;
42294;SDS011;27947;47.556;18.718;2023-05-13T04:39:54;11.85;;;6.00;;
42294;SDS011;27947;47.556;18.718;2023-05-13T04:42:22;9.73;;;6.25;;
42294;SDS011;27947;47.556;18.718;2023-05-13T04:44:47;13.50;;;11.02;;
42294;SDS011;27947;47.556;18.718;2023-05-13T04:47:14;13.65;;;10.10;;
42294;SDS011;27947;47.556;18.718;2023-05-13T04:49:39;9.93;;;7.63;;
42294;SDS011;27947;47.556;18.718;2023-05-13T04:52:05;7.72;;;5.80;;
42294;SDS011;27947;47.556;18.718;2023-05-13T04:54:31;14.63;;;7.38;;
42294;SDS011;27947;47.556;18.718;2023-05-13T04:56:59;6.78;;;5.32;;
42294;SDS011;27947;47.556;18.718;2023-05-13T04:59:26;9.45;;;6.30;;
42294;SDS011;27947;47.556;18.718;2023-05-13T05:01:53;7.47;;;5.55;;
42294;SDS011;27947;47.556;18.718;2023-05-13T05:04:19;9.38;;;5.80;;
42294;SDS011;27947;47.556;18.718;2023-05-13T05:06:45;7.35;;;5.22;;
42294;SDS011;27947;47.556;18.718;2023-05-13T05:09:11;9.48;;;5.03;;
42294;SDS011;27947;47.556;18.718;2023-05-13T05:11:37;6.45;;;5.10;;
42294;SDS011;27947;47.556;18.718;2023-05-13T05:14:02;6.50;;;4.90;;
42294;SDS011;27947;47.556;18.718;2023-05-13T05:16:28;7.93;;;5.15;;
42294;SDS011;27947;47.556;18.718;2023-05-13T05:18:55;6.53;;;4.63;;
42294;SDS011;27947;47.556;18.718;2023-05-13T05:21:20;6.50;;;4.47;;
42294;SDS011;27947;47.556;18.718;2023-05-13T05:23:45;6.20;;;4.47;;
42294;SDS011;27947;47.556;18.718;2023-05-13T05:26:11;5.43;;;4.10;;
42294;SDS011;27947;47.556;18.718;2023-05-13T05:28:37;6.07;;;4.43;;
42294;SDS011;27947;47.556;18.718;2023-05-13T05:31:04;5.75;;;4.40;;
42294;SDS011;27947;47.556;18.718;2023-05-13T05:33:31;6.03;;;4.63;;
42294;SDS011;27947;47.556;18.718;2023-05-13T05:35:57;5.75;;;4.00;;
42294;SDS011;27947;47.556;18.718;2023-05-13T05:38:23;7.95;;;4.15;;
42294;SDS011;27947;47.556;18.718;2023-05-13T05:40:50;9.68;;;5.18;;
42294;SDS011;27947;47.556;18.718;2023-05-13T05:43:15;7.05;;;4.70;;
42294;SDS011;27947;47.556;18.718;2023-05-13T05:45:40;5.45;;;4.30;;
42294;SDS011;27947;47.556;18.718;2023-05-13T05:48:09;6.90;;;4.63;;
42294;SDS011;27947;47.556;18.718;2023-05-13T05:50:35;7.68;;;4.93;;
42294;SDS011;27947;47.556;18.718;2023-05-13T05:53:03;6.07;;;4.55;;
42294;SDS011;27947;47.556;18.718;2023-05-13T05:55:29;5.18;;;3.83;;
42294;SDS011;27947;47.556;18.718;2023-05-13T05:57:56;5.25;;;3.85;;
42294;SDS011;27947;47.556;18.718;2023-05-13T06:00:22;8.73;;;4.43;;
42294;SDS011;27947;47.556;18.718;2023-05-13T06:02:48;6.28;;;4.63;;
42294;SDS011;27947;47.556;18.718;2023-05-13T06:05:14;6.05;;;4.60;;
42294;SDS011;27947;47.556;18.718;2023-05-13T06:07:41;6.93;;;4.50;;
42294;SDS011;27947;47.556;18.718;2023-05-13T06:10:06;5.25;;;4.22;;
42294;SDS011;27947;47.556;18.718;2023-05-13T06:12:32;7.03;;;4.45;;
42294;SDS011;27947;47.556;18.718;2023-05-13T06:14:57;6.75;;;5.07;;
42294;SDS011;27947;47.556;18.718;2023-05-13T06:17:23;8.13;;;4.30;;
42294;SDS011;27947;47.556;18.718;2023-05-13T06:19:48;5.57;;;4.32;;
42294;SDS011;27947;47.556;18.718;2023-05-13T06:22:14;6.65;;;4.35;;
42294;SDS011;27947;47.556;18.718;2023-05-13T06:24:41;5.97;;;4.85;;
42294;SDS011;27947;47.556;18.718;2023-05-13T06:27:12;8.50;;;5.72;;
42294;SDS011;27947;47.556;18.718;2023-05-13T06:29:37;7.25;;;4.55;;
42294;SDS011;27947;47.556;18.718;2023-05-13T06:32:03;6.45;;;5.00;;
42294;SDS011;27947;47.556;18.718;2023-05-13T06:34:28;6.20;;;4.72;;
42294;SDS011;27947;47.556;18.718;2023-05-13T06:36:54;8.38;;;5.15;;
42294;SDS011;27947;47.556;18.718;2023-05-13T06:39:19;6.13;;;3.80;;
42294;SDS011;27947;47.556;18.718;2023-05-13T06:41:45;6.45;;;4.78;;
42294;SDS011;27947;47.556;18.718;2023-05-13T06:44:13;6.78;;;4.20;;
42294;SDS011;27947;47.556;18.718;2023-05-13T06:46:43;5.53;;;4.30;;
42294;SDS011;27947;47.556;18.718;2023-05-13T06:49:10;9.82;;;5.47;;
42294;SDS011;27947;47.556;18.718;2023-05-13T06:51:35;5.47;;;4.35;;
42294;SDS011;27947;47.556;18.718;2023-05-13T06:54:00;6.55;;;5.50;;
42294;SDS011;27947;47.556;18.718;2023-05-13T06:56:26;8.02;;;5.68;;
42294;SDS011;27947;47.556;18.718;2023-05-13T06:58:52;7.32;;;5.50;;
42294;SDS011;27947;47.556;18.718;2023-05-13T07:01:17;7.15;;;5.35;;
42294;SDS011;27947;47.556;18.718;2023-05-13T07:03:43;7.80;;;5.70;;
42294;SDS011;27947;47.556;18.718;2023-05-13T07:06:08;18.33;;;8.13;;
42294;SDS011;27947;47.556;18.718;2023-05-13T07:08:34;8.57;;;6.10;;
42294;SDS011;27947;47.556;18.718;2023-05-13T07:10:59;6.15;;;4.57;;
42294;SDS011;27947;47.556;18.718;2023-05-13T07:13:24;6.10;;;4.65;;
42294;SDS011;27947;47.556;18.718;2023-05-13T07:15:50;8.75;;;4.55;;
42294;SDS011;27947;47.556;18.718;2023-05-13T07:18:15;6.65;;;4.80;;
42294;SDS011;27947;47.556;18.718;2023-05-13T07:20:41;7.80;;;4.72;;
42294;SDS011;27947;47.556;18.718;2023-05-13T07:23:06;9.85;;;5.60;;
42294;SDS011;27947;47.556;18.718;2023-05-13T07:25:31;7.93;;;5.30;;
42294;SDS011;27947;47.556;18.718;2023-05-13T07:27:57;7.82;;;5.70;;
42294;SDS011;27947;47.556;18.718;2023-05-13T07:30:23;8.45;;;5.45;;
42294;SDS011;27947;47.556;18.718;2023-05-13T07:32:48;6.85;;;5.40;;
42294;SDS011;27947;47.556;18.718;2023-05-13T07:35:13;7.25;;;5.40;;
42294;SDS011;27947;47.556;18.718;2023-05-13T07:37:40;6.70;;;5.25;;
42294;SDS011;27947;47.556;18.718;2023-05-13T07:40:06;6.53;;;4.88;;
42294;SDS011;27947;47.556;18.718;2023-05-13T07:42:32;6.68;;;4.82;;
42294;SDS011;27947;47.556;18.718;2023-05-13T07:44:57;7.28;;;4.75;;
42294;SDS011;27947;47.556;18.718;2023-05-13T07:47:22;14.07;;;4.93;;
42294;SDS011;27947;47.556;18.718;2023-05-13T07:49:48;7.35;;;5.45;;
42294;SDS011;27947;47.556;18.718;2023-05-13T07:52:16;12.27;;;5.47;;
42294;SDS011;27947;47.556;18.718;2023-05-13T07:54:42;7.18;;;5.10;;
42294;SDS011;27947;47.556;18.718;2023-05-13T07:57:08;7.63;;;5.28;;
42294;SDS011;27947;47.556;18.718;2023-05-13T07:59:33;9.00;;;6.30;;
42294;SDS011;27947;47.556;18.718;2023-05-13T08:01:58;10.65;;;6.60;;
42294;SDS011;27947;47.556;18.718;2023-05-13T08:04:24;7.95;;;6.90;;
42294;SDS011;27947;47.556;18.718;2023-05-13T08:06:50;8.48;;;7.00;;
42294;SDS011;27947;47.556;18.718;2023-05-13T08:09:15;9.95;;;6.60;;
42294;SDS011;27947;47.556;18.718;2023-05-13T08:11:40;8.40;;;6.55;;
42294;SDS011;27947;47.556;18.718;2023-05-13T08:14:06;8.80;;;6.45;;
42294;SDS011;27947;47.556;18.718;2023-05-13T08:16:33;11.05;;;6.90;;
42294;SDS011;27947;47.556;18.718;2023-05-13T08:18:58;10.52;;;6.70;;
42294;SDS011;27947;47.556;18.718;2023-05-13T08:21:24;10.07;;;6.57;;
42294;SDS011;27947;47.556;18.718;2023-05-13T08:23:49;9.85;;;6.20;;
42294;SDS011;27947;47.556;18.718;2023-05-13T08:26:16;8.93;;;7.10;;
42294;SDS011;27947;47.556;18.718;2023-05-13T08:28:41;8.55;;;7.55;;
42294;SDS011;27947;47.556;18.718;2023-05-13T08:31:07;13.15;;;7.68;;
42294;SDS011;27947;47.556;18.718;2023-05-13T08:33:32;9.02;;;7.15;;
42294;SDS011;27947;47.556;18.718;2023-05-13T08:35:58;8.57;;;6.88;;
42294;SDS011;27947;47.556;18.718;2023-05-13T08:38:24;40.10;;;8.23;;
42294;SDS011;27947;47.556;18.718;2023-05-13T08:40:49;18.13;;;6.70;;
42294;SDS011;27947;47.556;18.718;2023-05-13T08:43:15;9.95;;;6.75;;
42294;SDS011;27947;47.556;18.718;2023-05-13T08:45:41;7.68;;;6.10;;
42294;SDS011;27947;47.556;18.718;2023-05-13T08:48:09;8.70;;;6.43;;
42294;SDS011;27947;47.556;18.718;2023-05-13T08:50:36;9.18;;;6.50;;
42294;SDS011;27947;47.556;18.718;2023-05-13T08:53:01;13.38;;;8.20;;
42294;SDS011;27947;47.556;18.718;2023-05-13T08:55:27;8.55;;;6.68;;
42294;SDS011;27947;47.556;18.718;2023-05-13T08:57:52;8.20;;;6.00;;
42294;SDS011;27947;47.556;18.718;2023-05-13T09:00:19;9.48;;;6.50;;
42294;SDS011;27947;47.556;18.718;2023-05-13T09:02:44;8.88;;;6.72;;
42294;SDS011;27947;47.556;18.718;2023-05-13T09:05:10;9.27;;;6.63;;
42294;SDS011;27947;47.556;18.718;2023-05-13T09:07:36;8.18;;;6.50;;
42294;SDS011;27947;47.556;18.718;2023-05-13T09:10:05;9.55;;;7.65;;
42294;SDS011;27947;47.556;18.718;2023-05-13T09:15:12;9.73;;;7.22;;
42294;SDS011;27947;47.556;18.718;2023-05-13T09:17:38;12.00;;;8.48;;
42294;SDS011;27947;47.556;18.718;2023-05-13T09:20:08;8.52;;;7.15;;
42294;SDS011;27947;47.556;18.718;2023-05-13T09:22:34;9.65;;;7.93;;
42294;SDS011;27947;47.556;18.718;2023-05-13T09:24:59;12.00;;;8.30;;
42294;SDS011;27947;47.556;18.718;2023-05-13T09:27:41;12.25;;;9.15;;
42294;SDS011;27947;47.556;18.718;2023-05-13T09:30:06;11.25;;;9.10;;
42294;SDS011;27947;47.556;18.718;2023-05-13T09:32:32;12.00;;;8.43;;
42294;SDS011;27947;47.556;18.718;2023-05-13T09:35:07;8.38;;;6.38;;
42294;SDS011;27947;47.556;18.718;2023-05-13T09:37:32;7.40;;;5.80;;
42294;SDS011;27947;47.556;18.718;2023-05-13T09:39:58;7.72;;;6.38;;
42294;SDS011;27947;47.556;18.718;2023-05-13T09:42:24;11.65;;;6.43;;
42294;SDS011;27947;47.556;18.718;2023-05-13T09:44:49;7.60;;;6.05;;
42294;SDS011;27947;47.556;18.718;2023-05-13T09:47:15;9.30;;;6.72;;
42294;SDS011;27947;47.556;18.718;2023-05-13T09:49:42;8.43;;;6.30;;
42294;SDS011;27947;47.556;18.718;2023-05-13T09:52:08;11.60;;;6.63;;
42294;SDS011;27947;47.556;18.718;2023-05-13T09:54:37;11.68;;;7.28;;
42294;SDS011;27947;47.556;18.718;2023-05-13T09:57:02;9.35;;;7.45;;
42294;SDS011;27947;47.556;18.718;2023-05-13T09:59:34;10.80;;;7.85;;
42294;SDS011;27947;47.556;18.718;2023-05-13T10:02:00;8.13;;;6.82;;
42294;SDS011;27947;47.556;18.718;2023-05-13T10:04:28;10.48;;;7.07;;
42294;SDS011;27947;47.556;18.718;2023-05-13T10:06:53;10.55;;;7.50;;
42294;SDS011;27947;47.556;18.718;2023-05-13T10:09:19;10.52;;;7.07;;
42294;SDS011;27947;47.556;18.718;2023-05-13T10:11:46;11.40;;;7.38;;
42294;SDS011;27947;47.556;18.718;2023-05-13T10:14:12;10.10;;;7.28;;
42294;SDS011;27947;47.556;18.718;2023-05-13T10:16:38;11.00;;;7.75;;
42294;SDS011;27947;47.556;18.718;2023-05-13T10:19:03;9.95;;;6.97;;
42294;SDS011;27947;47.556;18.718;2023-05-13T10:21:29;9.40;;;6.78;;
42294;SDS011;27947;47.556;18.718;2023-05-13T10:23:55;9.52;;;6.60;;
42294;SDS011;27947;47.556;18.718;2023-05-13T10:26:20;8.25;;;6.63;;
42294;SDS011;27947;47.556;18.718;2023-05-13T10:28:46;10.68;;;7.20;;
42294;SDS011;27947;47.556;18.718;2023-05-13T10:31:12;9.98;;;6.82;;
42294;SDS011;27947;47.556;18.718;2023-05-13T10:33:38;11.02;;;6.95;;
42294;SDS011;27947;47.556;18.718;2023-05-13T10:41:05;9.93;;;5.87;;
42294;SDS011;27947;47.556;18.718;2023-05-13T10:43:33;9.35;;;6.40;;
42294;SDS011;27947;47.556;18.718;2023-05-13T10:46:00;8.02;;;5.07;;
42294;SDS011;27947;47.556;18.718;2023-05-13T10:48:25;6.90;;;5.07;;
42294;SDS011;27947;47.556;18.718;2023-05-13T10:53:18;7.80;;;5.28;;
42294;SDS011;27947;47.556;18.718;2023-05-13T10:55:44;6.72;;;5.10;;
42294;SDS011;27947;47.556;18.718;2023-05-13T10:58:13;7.18;;;5.50;;
42294;SDS011;27947;47.556;18.718;2023-05-13T11:00:40;7.70;;;4.75;;
42294;SDS011;27947;47.556;18.718;2023-05-13T11:03:10;7.90;;;5.32;;
42294;SDS011;27947;47.556;18.718;2023-05-13T11:05:45;10.57;;;5.75;;
42294;SDS011;27947;47.556;18.718;2023-05-13T11:08:22;14.30;;;5.85;;
42294;SDS011;27947;47.556;18.718;2023-05-13T11:10:56;8.80;;;5.47;;
42294;SDS011;27947;47.556;18.718;2023-05-13T11:13:22;7.55;;;5.65;;
42294;SDS011;27947;47.556;18.718;2023-05-13T11:15:52;6.43;;;5.18;;
42294;SDS011;27947;47.556;18.718;2023-05-13T11:18:18;6.88;;;5.35;;
42294;SDS011;27947;47.556;18.718;2023-05-13T11:20:51;10.73;;;6.32;;
42294;SDS011;27947;47.556;18.718;2023-05-13T11:23:18;6.05;;;5.13;;
42294;SDS011;27947;47.556;18.718;2023-05-13T11:25:43;7.05;;;5.65;;
42294;SDS011;27947;47.556;18.718;2023-05-13T11:28:13;6.97;;;5.10;;
42294;SDS011;27947;47.556;18.718;2023-05-13T11:30:38;6.63;;;5.15;;
42294;SDS011;27947;47.556;18.718;2023-05-13T11:33:04;9.88;;;5.75;;
42294;SDS011;27947;47.556;18.718;2023-05-13T11:35:36;7.63;;;5.60;;
42294;SDS011;27947;47.556;18.718;2023-05-13T11:38:02;9.52;;;5.68;;
42294;SDS011;27947;47.556;18.718;2023-05-13T11:40:31;11.73;;;5.85;;
42294;SDS011;27947;47.556;18.718;2023-05-13T11:42:57;10.23;;;6.03;;
42294;SDS011;27947;47.556;18.718;2023-05-13T11:45:23;9.75;;;6.10;;
42294;SDS011;27947;47.556;18.718;2023-05-13T11:47:49;7.15;;;5.60;;
42294;SDS011;27947;47.556;18.718;2023-05-13T11:50:21;9.68;;;5.65;;
42294;SDS011;27947;47.556;18.718;2023-05-13T11:52:50;8.63;;;5.80;;
42294;SDS011;27947;47.556;18.718;2023-05-13T11:55:29;9.23;;;6.40;;
42294;SDS011;27947;47.556;18.718;2023-05-13T11:57:55;9.95;;;6.10;;
42294;SDS011;27947;47.556;18.718;2023-05-13T12:00:24;10.32;;;6.38;;
42294;SDS011;27947;47.556;18.718;2023-05-13T12:02:51;9.48;;;5.97;;
42294;SDS011;27947;47.556;18.718;2023-05-13T12:05:16;9.88;;;6.55;;
42294;SDS011;27947;47.556;18.718;2023-05-13T12:07:42;11.05;;;7.18;;
42294;SDS011;27947;47.556;18.718;2023-05-13T12:10:07;10.20;;;6.38;;
42294;SDS011;27947;47.556;18.718;2023-05-13T12:12:34;7.75;;;6.07;;
42294;SDS011;27947;47.556;18.718;2023-05-13T12:15:03;11.38;;;6.75;;
42294;SDS011;27947;47.556;18.718;2023-05-13T12:17:29;15.80;;;6.32;;
42294;SDS011;27947;47.556;18.718;2023-05-13T12:22:29;12.88;;;6.93;;
42294;SDS011;27947;47.556;18.718;2023-05-13T12:24:55;9.43;;;6.38;;
42294;SDS011;27947;47.556;18.718;2023-05-13T12:27:25;13.48;;;7.53;;
42294;SDS011;27947;47.556;18.718;2023-05-13T12:29:53;11.55;;;6.80;;
42294;SDS011;27947;47.556;18.718;2023-05-13T12:32:18;11.18;;;7.35;;
42294;SDS011;27947;47.556;18.718;2023-05-13T12:34:47;14.45;;;6.95;;
42294;SDS011;27947;47.556;18.718;2023-05-13T12:37:12;13.10;;;7.18;;
42294;SDS011;27947;47.556;18.718;2023-05-13T12:39:38;9.63;;;6.40;;
42294;SDS011;27947;47.556;18.718;2023-05-13T12:42:04;9.57;;;6.10;;
42294;SDS011;27947;47.556;18.718;2023-05-13T12:44:29;12.25;;;6.93;;
42294;SDS011;27947;47.556;18.718;2023-05-13T12:46:55;11.02;;;7.22;;
42294;SDS011;27947;47.556;18.718;2023-05-13T12:49:21;20.75;;;9.15;;
42294;SDS011;27947;47.556;18.718;2023-05-13T12:51:47;10.00;;;6.90;;
42294;SDS011;27947;47.556;18.718;2023-05-13T12:54:13;12.93;;;7.13;;
42294;SDS011;27947;47.556;18.718;2023-05-13T12:56:38;13.88;;;8.07;;
42294;SDS011;27947;47.556;18.718;2023-05-13T12:59:06;13.05;;;8.15;;
42294;SDS011;27947;47.556;18.718;2023-05-13T13:01:32;12.43;;;8.10;;
42294;SDS011;27947;47.556;18.718;2023-05-13T13:03:58;10.70;;;6.95;;
42294;SDS011;27947;47.556;18.718;2023-05-13T13:06:23;11.88;;;7.07;;
42294;SDS011;27947;47.556;18.718;2023-05-13T13:08:48;12.77;;;8.27;;
42294;SDS011;27947;47.556;18.718;2023-05-13T13:11:14;14.38;;;8.02;;
42294;SDS011;27947;47.556;18.718;2023-05-13T13:13:43;12.10;;;7.63;;
42294;SDS011;27947;47.556;18.718;2023-05-13T13:16:08;13.80;;;7.43;;
42294;SDS011;27947;47.556;18.718;2023-05-13T13:18:34;12.90;;;7.55;;
42294;SDS011;27947;47.556;18.718;2023-05-13T13:20:59;12.85;;;8.05;;
42294;SDS011;27947;47.556;18.718;2023-05-13T13:23:25;20.90;;;10.13;;
42294;SDS011;27947;47.556;18.718;2023-05-13T13:25:50;13.30;;;7.75;;
42294;SDS011;27947;47.556;18.718;2023-05-13T13:28:15;8.95;;;6.40;;
42294;SDS011;27947;47.556;18.718;2023-05-13T13:30:41;12.07;;;6.00;;
42294;SDS011;27947;47.556;18.718;2023-05-13T13:33:11;16.08;;;8.48;;
42294;SDS011;27947;47.556;18.718;2023-05-13T13:35:36;10.45;;;6.05;;
42294;SDS011;27947;47.556;18.718;2023-05-13T13:38:01;15.07;;;7.93;;
42294;SDS011;27947;47.556;18.718;2023-05-13T13:40:27;10.45;;;7.07;;
42294;SDS011;27947;47.556;18.718;2023-05-13T13:42:52;10.02;;;6.40;;
42294;SDS011;27947;47.556;18.718;2023-05-13T13:45:18;11.85;;;6.90;;
42294;SDS011;27947;47.556;18.718;2023-05-13T13:47:48;10.48;;;6.50;;
42294;SDS011;27947;47.556;18.718;2023-05-13T13:50:13;11.60;;;6.72;;
42294;SDS011;27947;47.556;18.718;2023-05-13T13:52:38;10.48;;;6.22;;
42294;SDS011;27947;47.556;18.718;2023-05-13T13:55:04;9.45;;;5.70;;
42294;SDS011;27947;47.556;18.718;2023-05-13T13:57:29;10.95;;;5.97;;
42294;SDS011;27947;47.556;18.718;2023-05-13T13:59:55;10.85;;;6.15;;
42294;SDS011;27947;47.556;18.718;2023-05-13T14:02:20;7.90;;;5.93;;
42294;SDS011;27947;47.556;18.718;2023-05-13T14:04:46;11.15;;;6.55;;
42294;SDS011;27947;47.556;18.718;2023-05-13T14:07:11;14.18;;;5.60;;
42294;SDS011;27947;47.556;18.718;2023-05-13T14:09:36;7.68;;;5.32;;
42294;SDS011;27947;47.556;18.718;2023-05-13T14:12:02;11.30;;;5.88;;
42294;SDS011;27947;47.556;18.718;2023-05-13T14:14:28;8.15;;;5.65;;
42294;SDS011;27947;47.556;18.718;2023-05-13T14:16:53;8.82;;;5.75;;
42294;SDS011;27947;47.556;18.718;2023-05-13T14:19:18;7.43;;;5.30;;
42294;SDS011;27947;47.556;18.718;2023-05-13T14:21:44;7.70;;;5.85;;
42294;SDS011;27947;47.556;18.718;2023-05-13T14:24:10;10.13;;;5.47;;
42294;SDS011;27947;47.556;18.718;2023-05-13T14:26:36;10.85;;;5.20;;
42294;SDS011;27947;47.556;18.718;2023-05-13T14:29:01;9.45;;;5.32;;
42294;SDS011;27947;47.556;18.718;2023-05-13T14:31:26;11.30;;;6.07;;
42294;SDS011;27947;47.556;18.718;2023-05-13T14:33:52;10.70;;;5.38;;
42294;SDS011;27947;47.556;18.718;2023-05-13T14:36:17;11.45;;;6.22;;
42294;SDS011;27947;47.556;18.718;2023-05-13T14:38:44;12.93;;;5.75;;
42294;SDS011;27947;47.556;18.718;2023-05-13T14:41:10;9.40;;;5.90;;
42294;SDS011;27947;47.556;18.718;2023-05-13T14:43:36;8.55;;;5.22;;
42294;SDS011;27947;47.556;18.718;2023-05-13T14:46:01;6.70;;;4.70;;